Pleasantview, Idaho
Current Conditions -  °F | °C
As of 9:51 PM on Sunday 21 Dec 2014 (Local Time) from KLGU Reporting Station
Overcast Overcast  
Wind Chill: 36°   Ceiling: 5000
Heat Index: 43°   Visibility: 10mi
Dew Point: 32°   Wind: 13mph
Humidity: 65%   Direction: 300°WNW
Pressure: 29.98"   Gusts: NA
Location:  42.2285°N, 112.313°W
Report Text: KLGU 220451Z AUTO 30011KT 10SM BKN050 OVC100 06/00 A2998 RMK AO2 SLP148 T00610000
Loading
Personal Weather Stations






























Interactive Weather Map New forecast layout! Learn more

10-Day Weather Forecast

Advertisements
Track Severe Weather on mobile